West Alpine (356) Station Data

Red Flag Warning: No
Fire Weather Zone: 250
SDGE Region: Eastern
Lat/Lon: 32.83/-116.799

Observations

Time Wind Speed/Gust Temp(F) RH Fuel Moist Fuel Temp(F) Dewpt(F) Tmax(F) Tmin(F) Accum Precip 10-min Precip SL Press(mb)
6/27 5:10pm 253 6 G 12 87° 21% - - 43° 94.7° 71.6° - - -
6/27 5:00pm 246 8 G 13 87° 21% - - 43° 94.7° 71.6° - - -
6/27 4:50pm 248 8 G 14 87° 21% - - 43° 94.7° 71.6° - - -
6/27 4:40pm 251 7 G 12 88° 20% - - 41° 94.7° 71.6° - - -
6/27 4:30pm 242 7 G 11 88° 19% - - 41° 94.7° 71.6° - - -
6/27 4:20pm 236 6 G 12 89° 19% - - 41° 94.7° 71.6° - - -
6/27 4:10pm 260 7 G 14 89° 18% - - 40° 94.7° 71.6° - - -
6/27 4:00pm 261 7 G 14 89° 17% - - 38° 94.7° 71.6° - - -
6/27 3:50pm 259 7 G 13 89° 15% - - 35° 94.7° 71.6° - - -
6/27 3:40pm 268 9 G 13 89° 16% - - 37° 94.7° 71.6° - - -
6/27 3:30pm 265 9 G 15 89° 16% - - 37° 94.7° 71.6° - - -
6/27 3:20pm 258 7 G 13 90° 16% - - 38° 94.7° 71.6° - - -
6/27 3:10pm 234 7 G 15 89° 17% - - 38° 94.7° 71.6° - - -
6/27 3:00pm 244 9 G 15 89° 18% - - 40° 94.7° 71.6° - - -
6/27 2:50pm 243 8 G 16 90° 17% - - 39° 94.7° 71.6° - - -
6/27 2:40pm 245 7 G 12 91° 14% - - 35° 94.7° 71.6° - - -
6/27 2:30pm 245 8 G 16 91° 13% - - 33° 94.7° 71.6° - - -
6/27 2:20pm 259 9 G 17 91° 13% - - 33° 94.7° 71.6° - - -
6/27 2:10pm 256 9 G 17 91° 15% - - 37° 94.7° 71.6° - - -
6/27 2:00pm 245 8 G 14 92° 15% - - 37° 94.7° 71.6° - - -
6/27 1:50pm 253 9 G 14 92° 16% - - 39° 94.7° 71.6° - - -
6/27 1:40pm 249 8 G 17 92° 16% - - 40° 94.7° 71.6° - - -
6/27 1:30pm 243 8 G 14 92° 16% - - 39° 94.7° 71.6° - - -
6/27 1:20pm 254 11 G 18 92° 14% - - 36° 94.7° 71.6° - - -
6/27 1:10pm 264 10 G 18 93° 12% - - 32° 94.7° 71.6° - - -
6/27 1:00pm 268 9 G 16 93° 9% - - 27° 94.7° 71.6° - - -
6/27 12:50pm 266 9 G 15 94° 9% - - 27° 94.7° 71.6° - - -
6/27 12:40pm 258 9 G 16 94° 9% - - 27° 94.7° 71.6° - - -
6/27 12:30pm 257 9 G 15 94° 9% - - 26° 94.7° 71.6° - - -
6/27 12:20pm 284 6 G 13 94° 8% - - 25° 94.3° 71.6° - - -
6/27 12:10pm 282 7 G 13 93° 8% - - 24° 93.9° 71.6° - - -
6/27 12:00pm 282 8 G 15 93° 8% - - 22° 93.6° 71.6° - - -
6/27 11:50am 274 8 G 15 93° 8% - - 22° 93.6° 71.6° - - -
6/27 11:40am 277 6 G 11 93° 7% - - 21° 93.6° 71.6° - - -
6/27 11:30am 258 5 G 11 92° 7% - - 20° 92.9° 71.6° - - -
6/27 11:20am 255 7 G 12 92° 7% - - 20° 92.7° 71.6° - - -
6/27 11:10am 258 6 G 11 92° 7% - - 20° 92.5° 71.6° - - -
6/27 11:00am 250 5 G 10 91° 8% - - 21° 92° 71.6° - - -
6/27 10:50am 209 4 G 8 91° 9% - - 24° 91.7° 71.6° - - -
6/27 10:40am 220 5 G 10 90° 9% - - 24° 91.7° 71.6° - - -
6/27 10:30am 216 3 G 8 91° 8% - - 22° 91.6° 71.6° - - -
6/27 10:20am 235 5 G 9 90° 8% - - 21° 91.2° 71.6° - - -
6/27 10:10am 210 2 G 7 90° 8% - - 21° 91.2° 71.6° - - -
6/27 10:00am 231 5 G 10 90° 8% - - 22° 91.2° 71.6° - - -
6/27 9:50am 271 4 G 9 90° 7% - - 20° 91.2° 71.6° - - -
6/27 9:40am 272 3 G 6 91° 7% - - 18° 91.2° 71.6° - - -
6/27 9:30am 296 3 G 6 90° 7% - - 17° 91.2° 71.6° - - -
6/27 9:20am 283 3 G 7 90° 8% - - 19° 90° 71.6° - - -
6/27 9:10am 276 2 G 4 89° 7% - - 18° 89.5° 71.6° - - -
6/27 9:00am 272 1 G 4 88° 9% - - 21° 88.8° 71.6° - - -
6/27 8:50am 277 1 G 2 87° 12% - - 28° 88° 71.6° - - -
6/27 8:40am 338 1 G 2 86° 13% - - 29° 87.7° 71.6° - - -
6/27 8:30am 268 1 G 2 84° 13% - - 28° 84.6° 71.6° - - -
6/27 8:20am 264 1 G 2 84° 14% - - 29° 84° 71.6° - - -
6/27 8:10am 276 0 G 2 83° 14% - - 29° 83.4° 71.6° - - -
6/27 8:00am 270 1 G 2 81° 14% - - 28° 83° 71.6° - - -
6/27 7:50am 63 0 G 2 82° 15% - - 30° 83° 71.6° - - -
6/27 7:40am 58 1 G 2 81° 14% - - 28° 81.9° 71.6° - - -
6/27 7:30am 27 1 G 2 80° 14% - - 26° 80.8° 71.6° - - -
6/27 7:20am 66 1 G 2 79° 14% - - 26° 80.7° 71.6° - - -
6/27 7:10am 77 2 G 3 77° 15% - - 26° 80.7° 71.6° - - -
6/27 7:00am 52 1 G 3 77° 15% - - 26° 80.7° 71.6° - - -
6/27 6:50am 65 1 G 2 77° 14% - - 24° 80.7° 71.6° - - -
6/27 6:40am 52 0 G 2 75° 14% - - 23° 80.7° 71.6° - - -
6/27 6:30am 55 1 G 2 74° 13% - - 21° 80.7° 71.6° - - -
6/27 6:20am 76 0 G 2 72° 14% - - 20° 80.7° 71.6° - - -
6/27 6:10am 0 0 G 0 72° 14% - - 20° 80.7° 71.6° - - -
6/27 6:00am 37 0 G 1 75° 12% - - 19° 80.7° 72.2° - - -
6/27 5:50am 161 2 G 4 76° 12% - - 19° 80.7° 72.2° - - -
6/27 5:40am 68 1 G 3 73° 13% - - 20° 80.7° 72.2° - - -
6/27 5:30am 48 1 G 3 74° 12% - - 19° 80.7° 72.2° - - -
6/27 5:20am 90 0 G 1 76° 12% - - 19° 80.7° 72.2° - - -
6/27 5:10am 114 2 G 3 75° 12% - - 19° 80.7° 72.2° - - -
6/27 5:00am 102 2 G 5 74° 13% - - 20° 80.7° 72.2° - - -
6/27 4:50am 123 3 G 5 73° 14% - - 20° 80.7° 72.2° - - -
6/27 4:40am 89 3 G 4 73° 13% - - 20° 80.7° 72.2° - - -
6/27 4:30am 71 2 G 3 73° 14% - - 20° 80.7° 72.2° - - -
6/27 4:20am 78 1 G 3 72° 14% - - 21° 80.7° 72.2° - - -
6/27 4:10am 20 0 G 3 73° 14% - - 21° 80.7° 72.5° - - -
6/27 4:00am 350 0 G 1 74° 13% - - 20° 80.7° 73.1° - - -
6/27 3:50am 334 1 G 3 76° 11% - - 19° 80.7° 74.5° - - -
6/27 3:40am 74 0 G 2 76° 11% - - 19° 80.7° 74.5° - - -
6/27 3:30am 244 1 G 3 75° 12% - - 19° 80.7° 74.5° - - -
6/27 3:20am 251 1 G 4 75° 12% - - 19° 80.7° 74.5° - - -
6/27 3:10am 0 0 G 0 75° 13% - - 20° 80.7° 74.5° - - -
6/27 3:00am 0 0 G 0 75° 13% - - 20° 80.7° 75° - - -
6/27 2:50am 0 0 G 0 76° 12% - - 20° 80.7° 75.5° - - -
6/27 2:40am 253 0 G 1 76° 12% - - 21° 80.7° 75.8° - - -
6/27 2:30am 268 1 G 2 77° 12% - - 20° 80.7° 75.9° - - -
6/27 2:20am 223 0 G 1 77° 12% - - 20° 80.7° 76.6° - - -
6/27 2:10am 259 2 G 3 78° 12% - - 21° 80.7° 76.9° - - -
6/27 2:00am 247 1 G 2 78° 11% - - 21° 80.7° 77.3° - - -
6/27 1:50am 249 1 G 2 78° 12% - - 21° 80.7° 77.3° - - -
6/27 1:40am 278 0 G 2 78° 12% - - 20° 80.7° 77.3° - - -
6/27 1:30am 0 0 G 0 78° 12% - - 21° 80.7° 77.3° - - -
6/27 1:20am 227 0 G 2 78° 12% - - 21° 80.7° 78.1° - - -
6/27 1:10am 260 1 G 2 78° 12% - - 22° 80.7° 78.1° - - -
6/27 1:00am 259 1 G 3 79° 12% - - 22° 80.7° 78.1° - - -
6/27 12:50am 253 2 G 3 79° 12% - - 23° 80.7° 78.1° - - -
6/27 12:40am 258 2 G 3 79° 13% - - 23° 80.7° 78.2° - - -
6/27 12:30am 255 1 G 2 80° 12% - - 22° 80.7° 78.8° - - -
6/27 12:20am 154 0 G 2 80° 11% - - 22° 80.5° 78.8° - - -
6/27 12:10am 113 1 G 2 79° 12% - - 23° 80° 78.8° - - -
6/27 12:00am 117 0 G 2 79° 13% - - 24° 100° 76.7° - - -
6/26 11:50pm 116 1 G 2 79° 14% - - 25° 100° 76.7° - - -
6/26 11:40pm 127 0 G 2 78° 14% - - 25° 100° 76.7° - - -
6/26 11:30pm 245 0 G 1 78° 14% - - 25° 100° 76.7° - - -
6/26 11:20pm 161 1 G 2 78° 13% - - 24° 100° 76.7° - - -
6/26 11:10pm 139 1 G 3 78° 13% - - 24° 100° 76.7° - - -
6/26 11:00pm 39 2 G 3 78° 16% - - 28° 100° 76.7° - - -
6/26 10:50pm 267 1 G 2 79° 17% - - 31° 100° 76.7° - - -
6/26 10:40pm 89 1 G 3 81° 14% - - 28° 100° 76.7° - - -
6/26 10:30pm 137 2 G 5 82° 15% - - 30° 100° 76.7° - - -
6/26 10:20pm 142 3 G 6 81° 16% - - 31° 100° 76.7° - - -
6/26 10:10pm 115 2 G 5 82° 14% - - 27° 100° 76.7° - - -
6/26 10:00pm 89 0 G 2 82° 15% - - 29° 100° 76.7° - - -
6/26 9:50pm 73 1 G 2 83° 15% - - 30° 100° 76.7° - - -
6/26 9:40pm 253 1 G 3 83° 15% - - 30° 100° 76.7° - - -
6/26 9:30pm 257 2 G 3 83° 15% - - 31° 100° 76.7° - - -
6/26 9:20pm 119 1 G 2 84° 15% - - 30° 100° 76.7° - - -
6/26 9:10pm 121 1 G 4 83° 16% - - 32° 100° 76.7° - - -
6/26 9:00pm 138 1 G 3 83° 16% - - 33° 100° 76.7° - - -
6/26 8:50pm 133 1 G 2 84° 16% - - 33° 100° 76.7° - - -
6/26 8:40pm 114 0 G 1 84° 16% - - 33° 100° 76.7° - - -
6/26 8:30pm 117 1 G 1 85° 15% - - 32° 100° 76.7° - - -
6/26 8:20pm 10 0 G 1 85° 14% - - 31° 100° 76.7° - - -
6/26 8:10pm 145 0 G 1 86° 14% - - 31° 100° 76.7° - - -
6/26 8:00pm 199 0 G 1 86° 15% - - 34° 100° 76.7° - - -
6/26 7:50pm 252 1 G 5 87° 14% - - 33° 100° 76.7° - - -
6/26 7:40pm 257 4 G 7 88° 13% - - 32° 100° 76.7° - - -
6/26 7:30pm 268 5 G 8 89° 12% - - 31° 100° 76.7° - - -
6/26 7:20pm 247 4 G 7 90° 12% - - 31° 100° 76.7° - - -
6/26 7:10pm 259 4 G 10 91° 12% - - 31° 100° 76.7° - - -
6/26 7:00pm 266 6 G 10 91° 11% - - 30° 100° 76.7° - - -
6/26 6:50pm 267 7 G 11 92° 11% - - 29° 100° 76.7° - - -
6/26 6:40pm 266 8 G 12 92° 10% - - 29° 100° 76.7° - - -
6/26 6:30pm 266 9 G 13 93° 10% - - 28° 100° 76.7° - - -
6/26 6:20pm 265 7 G 11 94° 10% - - 29° 100° 76.7° - - -
6/26 6:10pm 268 8 G 14 94° 10% - - 29° 100° 76.7° - - -
6/26 6:00pm 269 8 G 14 94° 10% - - 29° 100° 76.7° - - -
6/26 5:50pm 273 9 G 15 95° 10% - - 29° 100° 76.7° - - -
6/26 5:40pm 270 9 G 14 95° 10% - - 31° 100° 76.7° - - -
6/26 5:30pm 272 9 G 15 95° 10% - - 29° 100° 76.7° - - -
6/26 5:20pm 275 10 G 17 96° 9% - - 29° 100° 76.7° - - -
6/26 5:10pm 271 11 G 18 96° 9% - - 28° 100° 76.7° - - -
6/26 5:00pm 269 11 G 17 97° 8% - - 26° 100° 76.7° - - -
6/26 4:50pm 270 10 G 16 97° 8% - - 26° 100° 76.7° - - -
6/26 4:40pm 279 10 G 18 98° 8% - - 26° 100° 76.7° - - -
6/26 4:30pm 271 12 G 20 98° 8% - - 25° 100° 76.7° - - -
6/26 4:20pm 272 11 G 18 98° 8% - - 27° 100° 76.7° - - -
6/26 4:10pm 271 12 G 19 98° 8% - - 26° 100° 76.7° - - -
6/26 4:00pm 273 11 G 19 98° 9% - - 29° 100° 76.7° - - -
6/26 3:50pm 273 12 G 19 98° 10% - - 32° 100° 76.7° - - -
6/26 3:40pm 269 10 G 18 98° 10% - - 32° 100° 76.7° - - -
6/26 3:30pm 273 10 G 19 98° 11% - - 34° 100° 76.7° - - -
6/26 3:20pm 274 10 G 17 98° 10% - - 34° 100° 76.7° - - -
6/26 3:10pm 276 11 G 17 98° 10% - - 33° 100° 76.7° - - -
6/26 3:00pm 274 11 G 17 99° 11% - - 34° 100° 76.7° - - -
6/26 2:50pm 286 8 G 14 99° 11% - - 35° 100° 76.7° - - -
6/26 2:40pm 271 8 G 15 98° 13% - - 38° 99.3° 76.7° - - -
6/26 2:30pm 281 9 G 15 97° 12% - - 37° 99.3° 76.7° - - -
6/26 2:20pm 273 9 G 15 97° 13% - - 38° 99.3° 76.7° - - -
6/26 2:10pm 296 7 G 15 98° 13% - - 38° 99.3° 76.7° - - -
6/26 2:00pm 274 8 G 15 97° 12% - - 37° 99.3° 76.7° - - -
6/26 1:50pm 277 7 G 14 97° 13% - - 38° 99.3° 76.7° - - -
6/26 1:40pm 274 9 G 14 97° 12% - - 37° 99.3° 76.7° - - -
6/26 1:30pm 259 7 G 15 97° 13% - - 39° 99.3° 76.7° - - -
6/26 1:20pm 271 8 G 14 98° 12% - - 37° 99.3° 76.7° - - -
6/26 1:10pm 277 9 G 14 98° 12% - - 36° 99.3° 76.7° - - -
6/26 1:00pm 284 7 G 14 97° 12% - - 36° 98.7° 76.7° - - -
6/26 12:50pm 285 8 G 13 97° 13% - - 38° 98.7° 76.7° - - -
6/26 12:40pm 282 7 G 13 97° 13% - - 39° 98.7° 76.7° - - -
6/26 12:30pm 289 7 G 12 96° 14% - - 39° 98.7° 76.7° - - -
6/26 12:20pm 283 7 G 12 97° 13% - - 39° 98.7° 76.7° - - -
6/26 12:10pm 288 5 G 11 97° 13% - - 37° 98.7° 76.7° - - -
6/26 12:00pm 288 5 G 11 97° 12% - - 36° 98.7° 76.7° - - -
6/26 11:50am 274 6 G 11 96° 12% - - 36° 98.7° 76.7° - - -
6/26 11:40am 289 6 G 12 98° 11% - - 34° 98.7° 76.7° - - -
6/26 11:30am 285 6 G 12 97° 11% - - 34° 97.8° 76.7° - - -
6/26 11:20am 261 5 G 10 97° 12% - - 35° 97.6° 76.7° - - -
6/26 11:10am 246 5 G 10 96° 13% - - 38° 97.4° 76.7° - - -
6/26 11:00am 261 4 G 9 97° 12% - - 36° 97.4° 76.7° - - -
6/26 10:50am 296 3 G 8 96° 13% - - 37° 97° 76.7° - - -
6/26 10:40am 310 3 G 7 96° 12% - - 36° 97° 76.7° - - -
6/26 10:30am 253 2 G 6 95° 12% - - 35° 96.3° 76.7° - - -
6/26 10:20am 261 4 G 8 95° 12% - - 34° 95.6° 76.7° - - -
6/26 10:10am 245 4 G 7 95° 11% - - 33° 95.6° 76.7° - - -
6/26 10:00am 264 6 G 9 95° 11% - - 33° 95.6° 76.7° - - -
6/26 9:50am 262 5 G 8 95° 11% - - 32° 95.4° 76.7° - - -
6/26 9:40am 232 3 G 6 94° 11% - - 31° 94.5° 76.7° - - -
6/26 9:30am 276 4 G 6 93° 11% - - 31° 93.7° 76.7° - - -
6/26 9:20am 273 4 G 6 93° 11% - - 32° 93.7° 76.7° - - -
6/26 9:10am 284 3 G 5 93° 11% - - 31° 93.7° 76.7° - - -
6/26 9:00am 282 2 G 3 92° 11% - - 31° 93.1° 76.7° - - -
6/26 8:50am 281 2 G 3 91° 13% - - 33° 91.5° 76.7° - - -
6/26 8:40am 290 2 G 3 91° 14% - - 36° 91.3° 76.7° - - -
6/26 8:30am 284 1 G 3 90° 16% - - 38° 90.9° 76.7° - - -
6/26 8:20am 289 0 G 1 90° 15% - - 36° 90.9° 76.7° - - -
6/26 8:10am 298 0 G 1 91° 15% - - 36° 90.9° 76.7° - - -
6/26 8:00am 66 0 G 2 89° 16% - - 36° 90.2° 76.7° - - -
6/26 7:50am 59 1 G 2 88° 16% - - 37° 89.1° 76.7° - - -
6/26 7:40am 56 1 G 2 88° 13% - - 32° 89.1° 76.7° - - -
6/26 7:30am 0 0 G 0 87° 15% - - 33° 89.1° 76.7° - - -
6/26 7:20am 0 0 G 0 88° 14% - - 33° 89.1° 76.7° - - -
6/26 7:10am 0 0 G 0 87° 12% - - 27° 87° 76.7° - - -
6/26 7:00am 82 0 G 1 85° 12% - - 27° 86.5° 76.7° - - -
6/26 6:50am 43 0 G 1 84° 13% - - 28° 84.8° 76.7° - - -
6/26 6:40am 150 0 G 1 84° 12% - - 25° 84.8° 76.7° - - -
6/26 6:30am 0 0 G 0 81° 13% - - 25° 84.8° 76.7° - - -
6/26 6:20am 76 0 G 1 80° 13% - - 25° 84.8° 76.7° - - -
6/26 6:10am 0 0 G 0 81° 13% - - 25° 84.8° 76.7° - - -
6/26 6:00am 214 0 G 1 81° 12% - - 24° 84.8° 76.7° - - -